createdAt,value
2022-09-15T00:01:18.271Z,100223.06
2022-09-15T00:03:45.967Z,100217.94
2022-09-15T00:06:14.664Z,100228.81
2022-09-15T00:08:42.987Z,100226.56
2022-09-15T00:11:20.205Z,100222.31
2022-09-15T00:13:49.322Z,100217.53
2022-09-15T00:16:18.852Z,100213.44
2022-09-15T00:18:48.484Z,100225.31
2022-09-15T00:21:19.435Z,100235.13
2022-09-15T00:23:48.409Z,100225.03
2022-09-15T00:26:20.530Z,100218.28
2022-09-15T00:28:48.707Z,100208.91
2022-09-15T00:31:22.184Z,100222.84
2022-09-15T00:33:52.357Z,100225.38
2022-09-15T00:36:22.114Z,100224.53
2022-09-15T00:38:50.606Z,100216.34
2022-09-15T00:41:20.191Z,100212.47
2022-09-15T00:44:00.108Z,100217.34
2022-09-15T00:46:35.245Z,100225.50
2022-09-15T00:49:02.856Z,100222.00
2022-09-15T00:52:07.015Z,100224.94
2022-09-15T00:54:50.181Z,100239.22
2022-09-15T00:57:35.495Z,100238.25
2022-09-15T01:00:08.672Z,100220.94
2022-09-15T01:02:37.613Z,100230.88
2022-09-15T01:05:08.863Z,100223.34
2022-09-15T01:07:55.398Z,100221.19
2022-09-15T01:10:28.328Z,100204.47
2022-09-15T01:13:00.240Z,100208.22
2022-09-15T01:15:37.872Z,100207.31
2022-09-15T01:18:44.329Z,100202.19
2022-09-15T01:21:22.105Z,100188.44
2022-09-15T01:24:01.668Z,100190.13
2022-09-15T01:27:37.695Z,100182.66
2022-09-15T01:30:05.354Z,100177.50
2022-09-15T01:32:58.845Z,100175.97
2022-09-15T01:35:44.434Z,100179.56
2022-09-15T01:38:16.512Z,100186.81
2022-09-15T01:41:05.940Z,100194.63
2022-09-15T01:43:39.340Z,100200.53
2022-09-15T01:46:07.855Z,100212.28
2022-09-15T01:48:37.224Z,100219.38
2022-09-15T01:51:07.131Z,100219.00
2022-09-15T01:53:35.428Z,100223.34
2022-09-15T01:56:08.589Z,100225.38
2022-09-15T01:58:38.129Z,100223.72
2022-09-15T02:01:20.297Z,100216.16
2022-09-15T02:04:12.135Z,100214.59
2022-09-15T02:07:00.970Z,100200.88
2022-09-15T02:09:34.680Z,100200.78
2022-09-15T02:12:07.851Z,100191.00
2022-09-15T02:14:44.848Z,100184.88
2022-09-15T02:17:18.014Z,100177.97
2022-09-15T02:19:49.991Z,100185.50
2022-09-15T02:22:27.113Z,100174.91
2022-09-15T02:25:02.968Z,100160.41
2022-09-15T02:27:37.778Z,100163.84
2022-09-15T02:30:11.743Z,100151.59
2022-09-15T02:32:48.184Z,100145.13
2022-09-15T02:35:17.342Z,100135.56
2022-09-15T02:37:46.240Z,100132.78
2022-09-15T02:40:14.006Z,100130.31
2022-09-15T02:42:51.513Z,100127.56
2022-09-15T02:45:20.417Z,100118.38
2022-09-15T02:47:49.532Z,100113.28
2022-09-15T02:50:19.028Z,100107.03
2022-09-15T02:52:47.069Z,100096.69
2022-09-15T02:55:15.902Z,100090.50
2022-09-15T02:57:43.573Z,100085.19
2022-09-15T03:00:16.030Z,100074.50
2022-09-15T03:02:46.349Z,100063.41
2022-09-15T03:05:15.858Z,100054.56
2022-09-15T03:07:43.863Z,100053.09
2022-09-15T03:10:13.093Z,100050.66
2022-09-15T03:12:42.829Z,100053.56
2022-09-15T03:15:12.740Z,100057.59
2022-09-15T03:17:42.567Z,100066.44
2022-09-15T03:20:12.453Z,100048.53
2022-09-15T03:22:40.134Z,100051.38
2022-09-15T03:25:08.362Z,100038.22
2022-09-15T03:27:37.509Z,100034.72
2022-09-15T03:30:06.669Z,100040.63
2022-09-15T03:32:34.590Z,100034.25
2022-09-15T03:35:02.871Z,100034.66
2022-09-15T03:37:30.438Z,100025.78
2022-09-15T03:39:58.177Z,100013.44
2022-09-15T03:42:25.865Z,100007.47
2022-09-15T03:44:53.494Z,100002.63
2022-09-15T03:47:21.061Z,100022.34
2022-09-15T03:49:48.990Z,100027.38
2022-09-15T03:52:16.800Z,100016.72
2022-09-15T03:54:44.575Z,100026.44
2022-09-15T03:57:12.044Z,100032.81
2022-09-15T03:59:39.603Z,100057.84
2022-09-15T04:02:07.088Z,100063.34
2022-09-15T04:04:35.190Z,100051.84
2022-09-15T04:07:02.680Z,100049.63
2022-09-15T04:09:30.875Z,100050.94
2022-09-15T04:11:58.469Z,100058.75
2022-09-15T04:14:26.451Z,100054.53
2022-09-15T04:16:53.906Z,100053.69
2022-09-15T04:19:22.229Z,100042.38
2022-09-15T04:21:50.125Z,100049.94
2022-09-15T04:24:18.436Z,100049.94
2022-09-15T04:26:46.360Z,100051.44
2022-09-15T04:29:17.504Z,100049.63
2022-09-15T04:31:46.847Z,100048.41
2022-09-15T04:34:14.996Z,100060.84
2022-09-15T04:36:43.080Z,100061.69
2022-09-15T04:39:11.452Z,100061.31
2022-09-15T04:41:38.966Z,100055.22
2022-09-15T04:44:06.749Z,100048.53
2022-09-15T04:46:34.357Z,100057.63
2022-09-15T04:49:02.316Z,100062.03
2022-09-15T04:51:29.936Z,100066.25
2022-09-15T04:53:58.459Z,100079.69
2022-09-15T04:56:26.700Z,100085.03
2022-09-15T04:59:02.472Z,100090.44
2022-09-15T05:01:34.122Z,100094.22
2022-09-15T05:04:04.179Z,100095.69
2022-09-15T05:06:33.090Z,100097.19
2022-09-15T05:09:00.874Z,100100.94
2022-09-15T05:11:28.643Z,100117.28
2022-09-15T05:13:56.527Z,100120.31
2022-09-15T05:16:26.257Z,100119.13
2022-09-15T05:18:57.119Z,100129.16
2022-09-15T05:21:25.896Z,100142.50
2022-09-15T05:23:54.546Z,100142.75
2022-09-15T05:26:25.423Z,100146.91
2022-09-15T05:28:54.100Z,100151.88
2022-09-15T05:31:25.213Z,100149.63
2022-09-15T05:33:53.132Z,100164.91
2022-09-15T05:36:25.076Z,100170.59
2022-09-15T05:38:54.255Z,100169.66
2022-09-15T05:41:22.306Z,100170.78
2022-09-15T05:43:50.933Z,100166.69
2022-09-15T05:46:20.713Z,100162.91
2022-09-15T05:48:48.609Z,100156.19
2022-09-15T05:51:16.802Z,100146.31
2022-09-15T05:53:44.403Z,100151.44
2022-09-15T05:56:14.475Z,100153.66
2022-09-15T05:58:44.343Z,100159.09
2022-09-15T06:01:18.545Z,100153.22
2022-09-15T06:03:47.616Z,100146.22
2022-09-15T06:06:15.966Z,100150.91
2022-09-15T06:08:48.272Z,100160.75
2022-09-15T06:11:19.968Z,100160.81
2022-09-15T06:13:48.417Z,100160.06
2022-09-15T06:16:21.559Z,100162.28
2022-09-15T06:18:50.606Z,100169.47
2022-09-15T06:21:21.499Z,100163.38
2022-09-15T06:23:57.197Z,100164.22
2022-09-15T06:26:26.468Z,100178.22
2022-09-15T06:28:56.925Z,100173.34
2022-09-15T06:31:26.886Z,100171.28
2022-09-15T06:33:57.712Z,100186.00
2022-09-15T06:36:28.652Z,100193.00
2022-09-15T06:38:56.947Z,100183.56
2022-09-15T06:41:25.586Z,100183.09
2022-09-15T06:43:53.334Z,100191.44
2022-09-15T06:46:25.139Z,100197.06
2022-09-15T06:48:53.747Z,100195.88
2022-09-15T06:51:24.295Z,100190.41
2022-09-15T06:53:53.395Z,100185.00
2022-09-15T06:56:23.273Z,100189.06
2022-09-15T06:58:51.451Z,100186.88
2022-09-15T07:01:31.577Z,100196.66
2022-09-15T07:04:01.610Z,100184.53
2022-09-15T07:06:31.448Z,100187.22
2022-09-15T07:08:59.420Z,100191.72
2022-09-15T07:11:27.819Z,100191.69
2022-09-15T07:13:55.376Z,100197.66
2022-09-15T07:16:23.293Z,100193.84
2022-09-15T07:18:51.525Z,100197.19
2022-09-15T07:21:20.578Z,100197.19
2022-09-15T07:23:48.999Z,100193.28
2022-09-15T07:26:23.269Z,100185.69
2022-09-15T07:28:54.560Z,100184.66
2022-09-15T07:31:25.441Z,100182.16
2022-09-15T07:33:53.559Z,100175.78
2022-09-15T07:36:21.807Z,100166.72
2022-09-15T07:38:50.690Z,100158.22
2022-09-15T07:41:29.837Z,100155.94
2022-09-15T07:43:59.126Z,100166.00
2022-09-15T07:46:30.200Z,100168.47
2022-09-15T07:48:58.001Z,100164.75
2022-09-15T07:51:27.067Z,100166.56
2022-09-15T07:53:55.529Z,100165.97
2022-09-15T07:56:24.031Z,100162.94
2022-09-15T07:58:51.802Z,100166.16
2022-09-15T08:01:22.423Z,100168.03
2022-09-15T08:03:52.117Z,100163.00
2022-09-15T08:06:22.723Z,100166.72
2022-09-15T08:08:55.098Z,100157.59
2022-09-15T08:11:27.179Z,100157.97
2022-09-15T08:13:54.997Z,100157.31
2022-09-15T08:16:24.050Z,100164.59
2022-09-15T08:18:53.734Z,100160.09
2022-09-15T08:21:22.470Z,100163.56
2022-09-15T08:23:52.623Z,100163.16
2022-09-15T08:26:20.739Z,100163.91
2022-09-15T08:28:49.380Z,100160.09
2022-09-15T08:31:17.511Z,100154.19
2022-09-15T08:33:53.472Z,100145.31
2022-09-15T08:36:21.257Z,100140.03
2022-09-15T08:38:48.864Z,100140.41
2022-09-15T08:41:28.012Z,100137.22
2022-09-15T08:44:16.046Z,100139.13
2022-09-15T08:47:01.571Z,100138.56
2022-09-15T08:49:51.708Z,100139.72
2022-09-15T08:52:26.787Z,100138.50
2022-09-15T08:54:58.191Z,100132.03
2022-09-15T08:57:26.455Z,100121.66
2022-09-15T08:59:55.651Z,100127.44
2022-09-15T09:02:47.214Z,100125.63
2022-09-15T09:05:34.447Z,100113.19
2022-09-15T09:08:14.401Z,100110.84
2022-09-15T09:11:02.381Z,100114.09
2022-09-15T09:13:47.055Z,100106.53
2022-09-15T09:16:27.449Z,100106.59
2022-09-15T09:19:16.069Z,100102.84
2022-09-15T09:21:48.254Z,100106.38
2022-09-15T09:24:21.385Z,100098.47
2022-09-15T09:26:54.299Z,100093.59
2022-09-15T09:29:36.609Z,100095.16
2022-09-15T09:32:13.278Z,100089.47
2022-09-15T09:34:56.281Z,100098.06
2022-09-15T09:37:24.762Z,100086.34
2022-09-15T09:39:52.364Z,100086.47
2022-09-15T09:42:24.685Z,100070.78
2022-09-15T09:44:52.795Z,100073.75
2022-09-15T09:47:20.671Z,100060.53
2022-09-15T09:49:49.525Z,100060.22
2022-09-15T09:52:35.617Z,100055.28
2022-09-15T09:55:24.271Z,100054.06
2022-09-15T09:57:52.340Z,100053.34
2022-09-15T10:00:41.092Z,100053.09
2022-09-15T10:03:21.277Z,100043.53
2022-09-15T10:06:07.930Z,100041.75
2022-09-15T10:08:36.760Z,100046.38
2022-09-15T10:11:10.379Z,100044.53
2022-09-15T10:13:52.614Z,100040.84
2022-09-15T10:16:22.631Z,100032.81
2022-09-15T10:18:54.194Z,100030.94
2022-09-15T10:21:26.294Z,100044.56
2022-09-15T10:23:53.828Z,100038.75
2022-09-15T10:26:34.614Z,100042.31
2022-09-15T10:29:14.815Z,100034.81
2022-09-15T10:31:44.808Z,100033.63
2022-09-15T10:34:30.989Z,100037.69
2022-09-15T10:37:16.154Z,100030.56
2022-09-15T10:39:52.808Z,100013.69
2022-09-15T10:42:46.108Z,100025.31
2022-09-15T10:45:32.580Z,100014.41
2022-09-15T10:48:09.607Z,100004.53
2022-09-15T10:51:31.567Z,100005.41
2022-09-15T10:54:25.493Z,99995.53
2022-09-15T10:57:02.160Z,99992.72
2022-09-15T10:59:36.231Z,99976.47
2022-09-15T11:02:38.646Z,99984.78
2022-09-15T11:05:23.008Z,99972.56
2022-09-15T11:08:01.118Z,99971.13
2022-09-15T11:10:35.421Z,99974.69
2022-09-15T11:13:27.962Z,99968.25
2022-09-15T11:15:56.651Z,99970.09
2022-09-15T11:18:29.438Z,99962.06
2022-09-15T11:21:00.025Z,99967.38
2022-09-15T11:23:34.365Z,99971.56
2022-09-15T11:26:22.527Z,99970.28
2022-09-15T11:28:59.893Z,99968.97
2022-09-15T11:31:34.444Z,99962.34
2022-09-15T11:34:15.772Z,99961.97
2022-09-15T11:36:49.209Z,99961.88
2022-09-15T11:39:24.241Z,99961.59
2022-09-15T11:41:59.642Z,99959.72
2022-09-15T11:44:37.653Z,99959.72
2022-09-15T11:47:05.319Z,99955.66
2022-09-15T11:49:57.127Z,99948.59
2022-09-15T11:52:49.413Z,99943.50
2022-09-15T11:55:23.321Z,99938.97
2022-09-15T11:57:56.074Z,99937.44
2022-09-15T12:00:23.548Z,99927.59
2022-09-15T12:03:12.477Z,99921.66
2022-09-15T12:05:47.601Z,99931.25
2022-09-15T12:08:25.404Z,99927.53
2022-09-15T12:10:56.666Z,99942.00
2022-09-15T12:13:26.354Z,99949.59
2022-09-15T12:15:55.179Z,99946.47
2022-09-15T12:18:43.842Z,99941.81
2022-09-15T12:21:29.210Z,99939.69
2022-09-15T12:24:05.396Z,99939.13
2022-09-15T12:26:33.803Z,99945.00
2022-09-15T12:29:04.604Z,99940.41
2022-09-15T12:31:39.780Z,99938.16
2022-09-15T12:34:25.808Z,99949.25
2022-09-15T12:36:56.052Z,99941.81
2022-09-15T12:39:41.620Z,99935.59
2022-09-15T12:42:20.509Z,99936.63
2022-09-15T12:45:07.068Z,99947.13
2022-09-15T12:47:42.325Z,99942.34
2022-09-15T12:50:15.771Z,99932.34
2022-09-15T12:52:50.124Z,99936.06
2022-09-15T12:55:22.653Z,99937.03
2022-09-15T12:57:53.162Z,99934.59
2022-09-15T13:00:20.619Z,99930.88
2022-09-15T13:02:51.530Z,99933.25
2022-09-15T13:05:42.035Z,99926.84
2022-09-15T13:08:12.609Z,99924.69
2022-09-15T13:10:43.826Z,99914.47
2022-09-15T13:13:39.547Z,99920.03
2022-09-15T13:16:14.592Z,99920.75
2022-09-15T13:18:44.054Z,99919.00
2022-09-15T13:21:16.405Z,99912.59
2022-09-15T13:23:48.359Z,99906.38
2022-09-15T13:26:22.649Z,99916.34
2022-09-15T13:28:55.615Z,99910.06
2022-09-15T13:31:50.976Z,99915.75
2022-09-15T13:38:16.613Z,99913.78
2022-09-15T13:41:06.672Z,99903.66
2022-09-15T13:43:49.423Z,99902.56
2022-09-15T13:46:23.018Z,99901.84
2022-09-15T13:48:50.755Z,99892.31
2022-09-15T13:51:39.699Z,99880.75
2022-09-15T13:54:19.084Z,99873.75
2022-09-15T13:56:49.143Z,99858.75
2022-09-15T13:59:24.171Z,99866.41
2022-09-15T14:01:54.557Z,99859.94
2022-09-15T14:04:25.073Z,99864.94
2022-09-15T14:06:58.523Z,99854.31
2022-09-15T14:09:47.544Z,99855.28
2022-09-15T14:12:18.134Z,99848.50
2022-09-15T14:14:54.821Z,99853.38
2022-09-15T14:17:26.775Z,99852.38
2022-09-15T14:19:56.764Z,99853.38
2022-09-15T14:22:28.751Z,99852.09
2022-09-15T14:24:57.677Z,99855.44
2022-09-15T14:27:32.629Z,99852.59
2022-09-15T14:30:06.647Z,99844.41
2022-09-15T14:32:47.912Z,99850.56
2022-09-15T14:35:19.899Z,99854.25
2022-09-15T14:37:57.151Z,99836.78
2022-09-15T14:40:27.302Z,99860.19
2022-09-15T14:42:55.961Z,99854.53
2022-09-15T14:45:56.883Z,99859.53
2022-09-15T14:48:28.445Z,99846.06
2022-09-15T14:51:07.255Z,99844.09
2022-09-15T14:53:40.692Z,99850.38
2022-09-15T14:56:22.959Z,99845.25
2022-09-15T14:59:03.688Z,99857.59
2022-09-15T15:01:34.644Z,99832.56
2022-09-15T15:04:09.940Z,99830.88
2022-09-15T15:07:05.006Z,99828.44
2022-09-15T15:09:49.100Z,99831.50
2022-09-15T15:12:23.706Z,99828.81
2022-09-15T15:14:54.390Z,99823.47
2022-09-15T15:17:38.662Z,99825.56
2022-09-15T15:20:06.229Z,99810.41
2022-09-15T15:22:34.273Z,99809.34
2022-09-15T15:25:02.916Z,99812.94
2022-09-15T15:27:33.766Z,99806.00
2022-09-15T15:30:26.591Z,99796.88
2022-09-15T15:32:54.883Z,99799.72
2022-09-15T15:35:23.383Z,99790.47
2022-09-15T15:38:05.514Z,99777.63
2022-09-15T15:40:35.930Z,99783.28
2022-09-15T15:43:16.346Z,99769.13
2022-09-15T15:45:51.993Z,99771.59
2022-09-15T15:48:20.037Z,99766.91
2022-09-15T15:50:47.824Z,99770.00
2022-09-15T15:53:16.648Z,99774.50
2022-09-15T15:55:44.662Z,99763.47
2022-09-15T15:58:13.441Z,99769.38
2022-09-15T16:00:51.184Z,99764.09
2022-09-15T16:03:20.312Z,99765.72
2022-09-15T16:05:54.348Z,99763.72
2022-09-15T16:08:31.682Z,99757.34
2022-09-15T16:11:02.304Z,99756.69
2022-09-15T16:13:30.524Z,99769.41
2022-09-15T16:16:00.391Z,99764.38
2022-09-15T16:18:29.578Z,99765.41
2022-09-15T16:20:57.065Z,99775.06
2022-09-15T16:23:24.707Z,99770.69
2022-09-15T16:25:57.757Z,99766.03
2022-09-15T16:28:25.916Z,99764.34
2022-09-15T16:30:54.313Z,99755.06
2022-09-15T16:33:22.540Z,99761.06
2022-09-15T16:35:55.768Z,99759.78
2022-09-15T16:38:25.915Z,99752.41
2022-09-15T16:40:53.762Z,99755.19
2022-09-15T16:43:23.158Z,99754.41
2022-09-15T16:45:52.322Z,99749.03
2022-09-15T16:48:20.419Z,99754.97
2022-09-15T16:51:16.805Z,99752.06
2022-09-15T16:53:39.542Z,99752.44
2022-09-15T16:56:10.679Z,99751.84
2022-09-15T16:58:38.875Z,99752.09
2022-09-15T17:01:07.997Z,99756.88
2022-09-15T17:03:36.099Z,99747.75
2022-09-15T17:06:04.524Z,99751.50
2022-09-15T17:08:33.804Z,99744.09
2022-09-15T17:11:03.969Z,99745.53
2022-09-15T17:13:33.603Z,99732.75
2022-09-15T17:16:02.213Z,99728.75
2022-09-15T17:18:29.989Z,99730.97
2022-09-15T17:20:57.486Z,99731.47
2022-09-15T17:23:34.794Z,99731.34
2022-09-15T17:26:05.427Z,99728.59
2022-09-15T17:28:36.578Z,99727.63
2022-09-15T17:31:21.937Z,99733.22
2022-09-15T17:33:50.606Z,99734.59
2022-09-15T17:36:18.744Z,99732.69
2022-09-15T17:38:48.883Z,99741.06
2022-09-15T17:41:19.819Z,99738.34
2022-09-15T17:43:47.698Z,99743.38
2022-09-15T17:46:16.398Z,99754.13
2022-09-15T17:48:44.122Z,99760.50
2022-09-15T17:51:19.706Z,99761.31
2022-09-15T17:53:47.867Z,99760.81
2022-09-15T17:56:15.561Z,99758.47
2022-09-15T17:58:44.067Z,99770.41
2022-09-15T18:01:13.741Z,99766.91
2022-09-15T18:03:43.307Z,99774.16
2022-09-15T18:06:11.498Z,99776.44
2022-09-15T18:08:39.041Z,99784.34
2022-09-15T18:11:07.694Z,99779.81
2022-09-15T18:13:37.972Z,99791.09
2022-09-15T18:16:10.354Z,99783.13
2022-09-15T18:18:39.962Z,99787.47
2022-09-15T18:21:09.840Z,99797.47
2022-09-15T18:23:38.167Z,99798.44
2022-09-15T18:26:05.891Z,99799.47
2022-09-15T18:28:33.803Z,99803.19
2022-09-15T18:31:01.457Z,99804.72
2022-09-15T18:33:30.276Z,99806.72
2022-09-15T18:36:01.473Z,99810.63
2022-09-15T18:38:29.929Z,99814.91
2022-09-15T18:40:58.749Z,99821.66
2022-09-15T18:43:27.933Z,99814.88
2022-09-15T18:46:00.481Z,99819.44
2022-09-15T18:48:29.334Z,99823.53
2022-09-15T18:50:57.044Z,99821.16
2022-09-15T18:53:24.755Z,99820.03
2022-09-15T18:55:52.394Z,99816.41
2022-09-15T18:58:22.435Z,99817.88
2022-09-15T19:00:50.236Z,99818.34
2022-09-15T19:03:18.442Z,99817.97
2022-09-15T19:05:46.535Z,99820.03
2022-09-15T19:08:15.562Z,99833.94
2022-09-15T19:10:44.237Z,99833.03
2022-09-15T19:13:14.151Z,99832.91
2022-09-15T19:15:44.128Z,99845.19
2022-09-15T19:18:12.547Z,99835.28
2022-09-15T19:20:40.568Z,99839.06
2022-09-15T19:23:09.416Z,99837.53
2022-09-15T19:25:37.139Z,99837.81
2022-09-15T19:28:05.121Z,99845.88
2022-09-15T19:30:33.474Z,99843.19
2022-09-15T19:33:05.595Z,99850.53
2022-09-15T19:35:33.068Z,99843.03
2022-09-15T19:38:00.802Z,99838.75
2022-09-15T19:40:28.853Z,99851.72
2022-09-15T19:42:57.362Z,99856.25
2022-09-15T19:45:24.876Z,99854.19
2022-09-15T19:47:52.852Z,99852.13
2022-09-15T19:50:20.507Z,99858.38
2022-09-15T19:52:48.041Z,99858.78
2022-09-15T19:55:18.250Z,99868.03
2022-09-15T19:57:46.635Z,99868.69
2022-09-15T20:00:15.126Z,99866.06
2022-09-15T20:02:42.752Z,99869.38
2022-09-15T20:05:10.688Z,99866.34
2022-09-15T20:07:38.342Z,99869.66
2022-09-15T20:10:06.520Z,99866.34
2022-09-15T20:12:34.438Z,99864.34
2022-09-15T20:15:01.937Z,99867.63
2022-09-15T20:17:29.988Z,99863.13
2022-09-15T20:19:58.376Z,99864.63
2022-09-15T20:22:26.743Z,99864.59
2022-09-15T20:24:56.115Z,99865.84
2022-09-15T20:27:24.052Z,99863.78
2022-09-15T20:29:51.515Z,99871.88
2022-09-15T20:32:22.763Z,99872.66
2022-09-15T20:34:52.423Z,99878.44
2022-09-15T20:37:22.257Z,99877.19
2022-09-15T20:39:51.441Z,99872.28
2022-09-15T20:42:19.216Z,99875.16
2022-09-15T20:44:46.736Z,99867.91
2022-09-15T20:47:15.860Z,99873.50
2022-09-15T20:49:43.327Z,99868.94
2022-09-15T20:52:11.447Z,99875.75
2022-09-15T20:54:39.631Z,99875.59
2022-09-15T20:57:07.497Z,99873.59
2022-09-15T20:59:35.962Z,99873.97
2022-09-15T21:02:06.053Z,99877.31
2022-09-15T21:04:33.832Z,99876.47
2022-09-15T21:07:01.673Z,99871.31
2022-09-15T21:09:29.632Z,99867.84
2022-09-15T21:11:57.630Z,99878.19
2022-09-15T21:14:25.280Z,99883.31
2022-09-15T21:16:53.899Z,99881.03
2022-09-15T21:19:22.281Z,99881.44
2022-09-15T21:21:49.988Z,99881.88
2022-09-15T21:24:17.889Z,99883.09
2022-09-15T21:27:04.342Z,99883.72
2022-09-15T21:29:32.150Z,99882.72
2022-09-15T21:32:01.131Z,99883.94
2022-09-15T21:34:29.333Z,99882.50
2022-09-15T21:36:57.925Z,99880.84
2022-09-15T21:39:25.491Z,99880.44
2022-09-15T21:41:53.207Z,99882.06
2022-09-15T21:44:21.051Z,99884.78
2022-09-15T21:46:48.655Z,99888.25
2022-09-15T21:49:18.102Z,99885.38
2022-09-15T21:51:47.138Z,99880.66
2022-09-15T21:54:15.539Z,99878.56
2022-09-15T21:56:43.063Z,99887.25
2022-09-15T21:59:11.054Z,99886.41
2022-09-15T22:01:39.903Z,99894.84
2022-09-15T22:04:08.901Z,99880.84
2022-09-15T22:06:40.499Z,99879.22
2022-09-15T22:09:13.458Z,99881.69
2022-09-15T22:11:41.910Z,99878.59
2022-09-15T22:14:10.452Z,99879.22
2022-09-15T22:16:40.049Z,99881.47
2022-09-15T22:19:09.982Z,99882.88
2022-09-15T22:21:41.753Z,99875.69
2022-09-15T22:24:13.111Z,99883.91
2022-09-15T22:26:42.529Z,99891.09
2022-09-15T22:29:10.609Z,99885.75
2022-09-15T22:31:38.691Z,99877.72
2022-09-15T22:34:06.279Z,99875.47
2022-09-15T22:36:34.542Z,99873.19
2022-09-15T22:39:04.509Z,99878.13
2022-09-15T22:41:35.120Z,99878.94
2022-09-15T22:44:03.748Z,99874.22
2022-09-15T22:46:31.810Z,99880.59
2022-09-15T22:49:00.053Z,99876.69
2022-09-15T22:51:27.710Z,99884.50
2022-09-15T22:53:57.368Z,99881.41
2022-09-15T22:56:26.726Z,99886.75
2022-09-15T22:58:56.845Z,99879.34
2022-09-15T23:01:27.169Z,99883.25
2022-09-15T23:03:57.329Z,99885.91
2022-09-15T23:06:28.361Z,99883.84
2022-09-15T23:08:59.143Z,99886.28
2022-09-15T23:11:29.359Z,99882.69
2022-09-15T23:13:57.210Z,99901.28
2022-09-15T23:16:25.817Z,99887.06
2022-09-15T23:18:54.112Z,99886.16
2022-09-15T23:21:21.957Z,99884.97
2022-09-15T23:23:50.455Z,99876.97
2022-09-15T23:26:21.884Z,99880.06
2022-09-15T23:28:49.868Z,99878.50
2022-09-15T23:31:18.567Z,99876.41
2022-09-15T23:33:47.249Z,99869.47
2022-09-15T23:36:19.652Z,99880.38
2022-09-15T23:38:48.696Z,99886.53
2022-09-15T23:41:17.416Z,99883.63
2022-09-15T23:43:45.557Z,99878.53
2022-09-15T23:46:13.617Z,99885.72
2022-09-15T23:48:42.031Z,99877.88
2022-09-15T23:51:10.215Z,99876.03
2022-09-15T23:53:38.161Z,99873.31
2022-09-15T23:56:06.482Z,99872.66
2022-09-15T23:58:34.425Z,99873.97
